sensor_id;sensor_type;location;lat;lon;timestamp;P1;durP1;ratioP1;P2;durP2;ratioP2
60502;SDS011;51448;51.660;5.824;2022-12-16T00:00:06;43.10;;;36.70;;
60502;SDS011;51448;51.660;5.824;2022-12-16T00:02:38;48.28;;;37.67;;
60502;SDS011;51448;51.660;5.824;2022-12-16T00:05:06;46.70;;;37.58;;
60502;SDS011;51448;51.660;5.824;2022-12-16T00:07:34;46.55;;;38.30;;
60502;SDS011;51448;51.660;5.824;2022-12-16T00:10:02;51.30;;;39.08;;
60502;SDS011;51448;51.660;5.824;2022-12-16T00:12:30;46.78;;;36.88;;
60502;SDS011;51448;51.660;5.824;2022-12-16T00:14:57;46.40;;;37.30;;
60502;SDS011;51448;51.660;5.824;2022-12-16T00:17:25;45.53;;;36.55;;
60502;SDS011;51448;51.660;5.824;2022-12-16T00:19:52;46.78;;;35.58;;
60502;SDS011;51448;51.660;5.824;2022-12-16T00:22:21;42.78;;;35.33;;
60502;SDS011;51448;51.660;5.824;2022-12-16T00:24:50;48.95;;;36.88;;
60502;SDS011;51448;51.660;5.824;2022-12-16T00:27:18;47.90;;;36.72;;
60502;SDS011;51448;51.660;5.824;2022-12-16T00:29:47;49.38;;;36.75;;
60502;SDS011;51448;51.660;5.824;2022-12-16T00:32:14;43.30;;;34.78;;
60502;SDS011;51448;51.660;5.824;2022-12-16T00:34:42;41.78;;;34.22;;
60502;SDS011;51448;51.660;5.824;2022-12-16T00:37:10;44.17;;;35.47;;
60502;SDS011;51448;51.660;5.824;2022-12-16T00:39:39;46.20;;;36.03;;
60502;SDS011;51448;51.660;5.824;2022-12-16T00:42:07;45.80;;;35.42;;
60502;SDS011;51448;51.660;5.824;2022-12-16T00:44:34;47.30;;;35.70;;
60502;SDS011;51448;51.660;5.824;2022-12-16T00:47:01;45.83;;;34.72;;
60502;SDS011;51448;51.660;5.824;2022-12-16T00:49:29;44.25;;;35.28;;
60502;SDS011;51448;51.660;5.824;2022-12-16T00:51:56;46.42;;;35.75;;
60502;SDS011;51448;51.660;5.824;2022-12-16T00:54:24;42.58;;;34.60;;
60502;SDS011;51448;51.660;5.824;2022-12-16T00:56:51;43.95;;;35.92;;
60502;SDS011;51448;51.660;5.824;2022-12-16T00:59:20;49.25;;;35.25;;
60502;SDS011;51448;51.660;5.824;2022-12-16T01:01:47;47.53;;;37.28;;
60502;SDS011;51448;51.660;5.824;2022-12-16T01:04:16;43.65;;;35.08;;
60502;SDS011;51448;51.660;5.824;2022-12-16T01:06:45;45.13;;;35.30;;
60502;SDS011;51448;51.660;5.824;2022-12-16T01:09:13;44.97;;;35.85;;
60502;SDS011;51448;51.660;5.824;2022-12-16T01:11:40;45.25;;;35.72;;
60502;SDS011;51448;51.660;5.824;2022-12-16T01:14:08;43.58;;;35.75;;
60502;SDS011;51448;51.660;5.824;2022-12-16T01:16:35;46.25;;;36.33;;
60502;SDS011;51448;51.660;5.824;2022-12-16T01:19:03;41.88;;;32.88;;
60502;SDS011;51448;51.660;5.824;2022-12-16T01:21:31;43.45;;;33.28;;
60502;SDS011;51448;51.660;5.824;2022-12-16T01:23:58;44.75;;;35.65;;
60502;SDS011;51448;51.660;5.824;2022-12-16T01:26:26;43.28;;;34.63;;
60502;SDS011;51448;51.660;5.824;2022-12-16T01:28:53;44.53;;;33.63;;
60502;SDS011;51448;51.660;5.824;2022-12-16T01:31:21;42.88;;;34.35;;
60502;SDS011;51448;51.660;5.824;2022-12-16T01:33:50;41.97;;;33.50;;
60502;SDS011;51448;51.660;5.824;2022-12-16T01:36:18;42.00;;;34.92;;
60502;SDS011;51448;51.660;5.824;2022-12-16T01:38:46;43.78;;;33.97;;
60502;SDS011;51448;51.660;5.824;2022-12-16T01:41:14;42.85;;;35.05;;
60502;SDS011;51448;51.660;5.824;2022-12-16T01:43:43;51.03;;;36.63;;
60502;SDS011;51448;51.660;5.824;2022-12-16T01:48:42;43.35;;;34.88;;
60502;SDS011;51448;51.660;5.824;2022-12-16T01:51:27;44.70;;;34.35;;
60502;SDS011;51448;51.660;5.824;2022-12-16T01:54:07;45.13;;;35.42;;
60502;SDS011;51448;51.660;5.824;2022-12-16T01:56:40;44.50;;;35.83;;
60502;SDS011;51448;51.660;5.824;2022-12-16T01:59:14;46.65;;;37.35;;
60502;SDS011;51448;51.660;5.824;2022-12-16T02:04:13;47.25;;;36.85;;
60502;SDS011;51448;51.660;5.824;2022-12-16T02:06:41;51.72;;;39.95;;
60502;SDS011;51448;51.660;5.824;2022-12-16T02:09:09;44.50;;;36.65;;
60502;SDS011;51448;51.660;5.824;2022-12-16T02:33:02;47.22;;;38.28;;
60502;SDS011;51448;51.660;5.824;2022-12-16T02:36:00;47.50;;;38.45;;
60502;SDS011;51448;51.660;5.824;2022-12-16T02:38:59;50.33;;;39.22;;
60502;SDS011;51448;51.660;5.824;2022-12-16T02:41:49;47.05;;;36.03;;
60502;SDS011;51448;51.660;5.824;2022-12-16T02:44:34;47.25;;;37.90;;
60502;SDS011;51448;51.660;5.824;2022-12-16T02:47:20;48.38;;;39.40;;
60502;SDS011;51448;51.660;5.824;2022-12-16T02:49:49;49.03;;;38.25;;
60502;SDS011;51448;51.660;5.824;2022-12-16T02:54:58;45.00;;;35.97;;
60502;SDS011;51448;51.660;5.824;2022-12-16T03:00:14;50.83;;;39.33;;
60502;SDS011;51448;51.660;5.824;2022-12-16T03:05:47;46.22;;;37.22;;
60502;SDS011;51448;51.660;5.824;2022-12-16T03:10:55;46.97;;;38.20;;
60502;SDS011;51448;51.660;5.824;2022-12-16T03:13:28;51.10;;;37.90;;
60502;SDS011;51448;51.660;5.824;2022-12-16T03:16:03;46.08;;;36.15;;
60502;SDS011;51448;51.660;5.824;2022-12-16T03:18:37;46.97;;;37.28;;
60502;SDS011;51448;51.660;5.824;2022-12-16T03:21:09;45.63;;;36.63;;
60502;SDS011;51448;51.660;5.824;2022-12-16T03:26:33;48.08;;;35.92;;
60502;SDS011;51448;51.660;5.824;2022-12-16T03:29:15;49.70;;;36.38;;
60502;SDS011;51448;51.660;5.824;2022-12-16T03:31:57;46.80;;;37.60;;
60502;SDS011;51448;51.660;5.824;2022-12-16T03:34:31;50.63;;;37.95;;
60502;SDS011;51448;51.660;5.824;2022-12-16T03:37:25;50.13;;;38.30;;
60502;SDS011;51448;51.660;5.824;2022-12-16T03:39:59;47.17;;;38.72;;
60502;SDS011;51448;51.660;5.824;2022-12-16T03:42:32;47.92;;;38.45;;
60502;SDS011;51448;51.660;5.824;2022-12-16T03:45:03;51.75;;;39.95;;
60502;SDS011;51448;51.660;5.824;2022-12-16T03:50:03;45.88;;;35.38;;
60502;SDS011;51448;51.660;5.824;2022-12-16T03:52:31;50.05;;;39.05;;
60502;SDS011;51448;51.660;5.824;2022-12-16T03:54:59;49.30;;;37.65;;
60502;SDS011;51448;51.660;5.824;2022-12-16T03:57:27;51.10;;;40.42;;
60502;SDS011;51448;51.660;5.824;2022-12-16T03:59:55;46.67;;;36.85;;
60502;SDS011;51448;51.660;5.824;2022-12-16T04:02:22;47.60;;;38.35;;
60502;SDS011;51448;51.660;5.824;2022-12-16T04:04:50;49.65;;;38.13;;
60502;SDS011;51448;51.660;5.824;2022-12-16T04:07:17;51.00;;;40.58;;
60502;SDS011;51448;51.660;5.824;2022-12-16T04:09:50;49.83;;;40.10;;
60502;SDS011;51448;51.660;5.824;2022-12-16T04:12:18;50.83;;;39.75;;
60502;SDS011;51448;51.660;5.824;2022-12-16T04:15:05;47.92;;;38.00;;
60502;SDS011;51448;51.660;5.824;2022-12-16T04:17:53;51.03;;;40.67;;
60502;SDS011;51448;51.660;5.824;2022-12-16T04:20:40;50.55;;;40.15;;
60502;SDS011;51448;51.660;5.824;2022-12-16T04:23:32;51.30;;;39.20;;
60502;SDS011;51448;51.660;5.824;2022-12-16T04:26:21;47.95;;;38.55;;
60502;SDS011;51448;51.660;5.824;2022-12-16T04:28:49;50.05;;;38.38;;
60502;SDS011;51448;51.660;5.824;2022-12-16T04:31:16;51.08;;;39.15;;
60502;SDS011;51448;51.660;5.824;2022-12-16T04:33:44;47.15;;;38.30;;
60502;SDS011;51448;51.660;5.824;2022-12-16T04:36:30;48.85;;;37.17;;
60502;SDS011;51448;51.660;5.824;2022-12-16T04:39:16;47.42;;;37.50;;
60502;SDS011;51448;51.660;5.824;2022-12-16T04:42:03;48.63;;;37.63;;
60502;SDS011;51448;51.660;5.824;2022-12-16T04:44:49;49.50;;;37.10;;
60502;SDS011;51448;51.660;5.824;2022-12-16T04:47:35;48.20;;;38.33;;
60502;SDS011;51448;51.660;5.824;2022-12-16T04:50:23;47.72;;;38.10;;
60502;SDS011;51448;51.660;5.824;2022-12-16T04:53:09;52.70;;;38.92;;
60502;SDS011;51448;51.660;5.824;2022-12-16T04:55:56;53.72;;;39.95;;
60502;SDS011;51448;51.660;5.824;2022-12-16T04:58:43;50.40;;;38.70;;
60502;SDS011;51448;51.660;5.824;2022-12-16T05:01:29;52.90;;;38.95;;
60502;SDS011;51448;51.660;5.824;2022-12-16T05:04:15;55.97;;;40.83;;
60502;SDS011;51448;51.660;5.824;2022-12-16T05:07:01;56.42;;;41.58;;
60502;SDS011;51448;51.660;5.824;2022-12-16T05:09:47;58.53;;;40.35;;
60502;SDS011;51448;51.660;5.824;2022-12-16T05:12:34;61.63;;;43.10;;
60502;SDS011;51448;51.660;5.824;2022-12-16T05:15:21;62.08;;;45.03;;
60502;SDS011;51448;51.660;5.824;2022-12-16T05:18:08;66.80;;;45.47;;
60502;SDS011;51448;51.660;5.824;2022-12-16T05:21:01;77.65;;;49.35;;
60502;SDS011;51448;51.660;5.824;2022-12-16T05:23:48;78.07;;;49.65;;
60502;SDS011;51448;51.660;5.824;2022-12-16T05:26:54;79.15;;;50.95;;
60502;SDS011;51448;51.660;5.824;2022-12-16T05:29:40;84.32;;;51.00;;
60502;SDS011;51448;51.660;5.824;2022-12-16T05:32:27;77.95;;;51.45;;
60502;SDS011;51448;51.660;5.824;2022-12-16T05:35:13;84.18;;;50.72;;
60502;SDS011;51448;51.660;5.824;2022-12-16T05:37:59;80.55;;;50.40;;
60502;SDS011;51448;51.660;5.824;2022-12-16T05:40:45;74.28;;;49.80;;
60502;SDS011;51448;51.660;5.824;2022-12-16T05:43:31;80.03;;;53.30;;
60502;SDS011;51448;51.660;5.824;2022-12-16T05:46:17;78.10;;;51.85;;
60502;SDS011;51448;51.660;5.824;2022-12-16T05:49:04;73.93;;;49.55;;
60502;SDS011;51448;51.660;5.824;2022-12-16T05:51:50;69.07;;;51.45;;
60502;SDS011;51448;51.660;5.824;2022-12-16T05:54:37;70.90;;;48.92;;
60502;SDS011;51448;51.660;5.824;2022-12-16T05:57:23;74.88;;;49.08;;
60502;SDS011;51448;51.660;5.824;2022-12-16T06:00:09;76.03;;;49.78;;
60502;SDS011;51448;51.660;5.824;2022-12-16T06:02:57;79.80;;;52.88;;
60502;SDS011;51448;51.660;5.824;2022-12-16T06:05:44;82.85;;;53.80;;
60502;SDS011;51448;51.660;5.824;2022-12-16T06:08:30;74.32;;;49.47;;
60502;SDS011;51448;51.660;5.824;2022-12-16T06:11:16;78.53;;;50.65;;
60502;SDS011;51448;51.660;5.824;2022-12-16T06:14:02;90.57;;;53.17;;
60502;SDS011;51448;51.660;5.824;2022-12-16T06:16:48;79.82;;;53.00;;
60502;SDS011;51448;51.660;5.824;2022-12-16T06:19:34;80.47;;;52.15;;
60502;SDS011;51448;51.660;5.824;2022-12-16T06:22:21;79.32;;;52.78;;
60502;SDS011;51448;51.660;5.824;2022-12-16T06:25:07;88.05;;;53.63;;
60502;SDS011;51448;51.660;5.824;2022-12-16T06:27:53;83.97;;;52.95;;
60502;SDS011;51448;51.660;5.824;2022-12-16T06:30:39;76.50;;;50.47;;
60502;SDS011;51448;51.660;5.824;2022-12-16T06:33:25;72.13;;;48.95;;
60502;SDS011;51448;51.660;5.824;2022-12-16T06:36:16;79.75;;;50.28;;
60502;SDS011;51448;51.660;5.824;2022-12-16T06:39:02;76.47;;;49.65;;
60502;SDS011;51448;51.660;5.824;2022-12-16T06:41:48;74.47;;;51.50;;
60502;SDS011;51448;51.660;5.824;2022-12-16T06:44:34;73.07;;;50.20;;
60502;SDS011;51448;51.660;5.824;2022-12-16T06:47:20;75.90;;;49.38;;
60502;SDS011;51448;51.660;5.824;2022-12-16T06:50:07;75.50;;;49.70;;
60502;SDS011;51448;51.660;5.824;2022-12-16T06:52:53;73.25;;;48.42;;
60502;SDS011;51448;51.660;5.824;2022-12-16T06:55:39;72.45;;;49.25;;
60502;SDS011;51448;51.660;5.824;2022-12-16T06:58:26;77.32;;;50.28;;
60502;SDS011;51448;51.660;5.824;2022-12-16T07:01:12;71.10;;;49.63;;
60502;SDS011;51448;51.660;5.824;2022-12-16T07:03:58;68.53;;;48.83;;
60502;SDS011;51448;51.660;5.824;2022-12-16T07:06:45;72.15;;;49.97;;
60502;SDS011;51448;51.660;5.824;2022-12-16T07:09:31;71.13;;;48.53;;
60502;SDS011;51448;51.660;5.824;2022-12-16T07:12:17;73.15;;;51.65;;
60502;SDS011;51448;51.660;5.824;2022-12-16T07:15:03;75.25;;;50.88;;
60502;SDS011;51448;51.660;5.824;2022-12-16T07:17:50;75.07;;;52.40;;
60502;SDS011;51448;51.660;5.824;2022-12-16T07:20:36;79.82;;;53.55;;
60502;SDS011;51448;51.660;5.824;2022-12-16T07:23:23;73.65;;;51.90;;
60502;SDS011;51448;51.660;5.824;2022-12-16T07:26:09;76.30;;;51.25;;
60502;SDS011;51448;51.660;5.824;2022-12-16T07:28:55;71.70;;;49.10;;
60502;SDS011;51448;51.660;5.824;2022-12-16T07:31:42;74.72;;;52.63;;
60502;SDS011;51448;51.660;5.824;2022-12-16T07:34:29;75.45;;;51.67;;
60502;SDS011;51448;51.660;5.824;2022-12-16T07:37:16;78.63;;;50.60;;
60502;SDS011;51448;51.660;5.824;2022-12-16T07:40:02;76.72;;;50.60;;
60502;SDS011;51448;51.660;5.824;2022-12-16T07:42:49;73.40;;;49.80;;
60502;SDS011;51448;51.660;5.824;2022-12-16T07:45:35;78.10;;;51.53;;
60502;SDS011;51448;51.660;5.824;2022-12-16T07:48:21;77.80;;;52.55;;
60502;SDS011;51448;51.660;5.824;2022-12-16T07:51:07;67.88;;;51.10;;
60502;SDS011;51448;51.660;5.824;2022-12-16T07:53:53;83.40;;;51.38;;
60502;SDS011;51448;51.660;5.824;2022-12-16T07:56:39;83.45;;;52.80;;
60502;SDS011;51448;51.660;5.824;2022-12-16T07:59:25;88.57;;;54.47;;
60502;SDS011;51448;51.660;5.824;2022-12-16T08:02:12;98.28;;;56.97;;
60502;SDS011;51448;51.660;5.824;2022-12-16T08:04:58;157.57;;;57.35;;
60502;SDS011;51448;51.660;5.824;2022-12-16T08:07:44;159.30;;;59.38;;
60502;SDS011;51448;51.660;5.824;2022-12-16T08:10:31;138.25;;;57.20;;
60502;SDS011;51448;51.660;5.824;2022-12-16T08:13:17;363.55;;;64.65;;
60502;SDS011;51448;51.660;5.824;2022-12-16T08:16:05;162.55;;;56.35;;
60502;SDS011;51448;51.660;5.824;2022-12-16T08:18:52;162.23;;;56.45;;
60502;SDS011;51448;51.660;5.824;2022-12-16T08:21:38;109.45;;;54.97;;
60502;SDS011;51448;51.660;5.824;2022-12-16T08:24:24;100.93;;;54.08;;
60502;SDS011;51448;51.660;5.824;2022-12-16T08:27:19;116.75;;;51.47;;
60502;SDS011;51448;51.660;5.824;2022-12-16T08:30:06;134.43;;;55.08;;
60502;SDS011;51448;51.660;5.824;2022-12-16T08:32:53;105.35;;;51.80;;
60502;SDS011;51448;51.660;5.824;2022-12-16T08:35:46;178.93;;;54.88;;
60502;SDS011;51448;51.660;5.824;2022-12-16T08:38:32;103.07;;;53.25;;
60502;SDS011;51448;51.660;5.824;2022-12-16T08:41:21;156.40;;;53.17;;
60502;SDS011;51448;51.660;5.824;2022-12-16T08:44:07;106.88;;;54.13;;
60502;SDS011;51448;51.660;5.824;2022-12-16T08:46:54;231.63;;;57.53;;
60502;SDS011;51448;51.660;5.824;2022-12-16T08:49:40;334.85;;;56.90;;
60502;SDS011;51448;51.660;5.824;2022-12-16T08:52:28;269.20;;;56.42;;
60502;SDS011;51448;51.660;5.824;2022-12-16T08:55:15;140.18;;;56.78;;
60502;SDS011;51448;51.660;5.824;2022-12-16T08:58:01;124.40;;;56.90;;
60502;SDS011;51448;51.660;5.824;2022-12-16T09:00:48;156.60;;;55.22;;
60502;SDS011;51448;51.660;5.824;2022-12-16T09:03:35;207.13;;;54.47;;
60502;SDS011;51448;51.660;5.824;2022-12-16T09:06:23;159.75;;;55.92;;
60502;SDS011;51448;51.660;5.824;2022-12-16T09:09:10;415.30;;;56.22;;
60502;SDS011;51448;51.660;5.824;2022-12-16T09:11:56;592.65;;;63.75;;
60502;SDS011;51448;51.660;5.824;2022-12-16T09:14:44;394.70;;;58.13;;
60502;SDS011;51448;51.660;5.824;2022-12-16T09:17:30;299.45;;;54.42;;
60502;SDS011;51448;51.660;5.824;2022-12-16T09:20:17;450.77;;;63.78;;
60502;SDS011;51448;51.660;5.824;2022-12-16T09:23:03;389.77;;;60.20;;
60502;SDS011;51448;51.660;5.824;2022-12-16T09:25:50;248.52;;;56.03;;
60502;SDS011;51448;51.660;5.824;2022-12-16T09:28:36;319.60;;;57.35;;
60502;SDS011;51448;51.660;5.824;2022-12-16T09:31:23;269.45;;;52.08;;
60502;SDS011;51448;51.660;5.824;2022-12-16T09:34:09;170.60;;;47.83;;
60502;SDS011;51448;51.660;5.824;2022-12-16T09:36:55;259.48;;;52.90;;
60502;SDS011;51448;51.660;5.824;2022-12-16T09:39:42;376.00;;;56.58;;
60502;SDS011;51448;51.660;5.824;2022-12-16T09:42:29;197.57;;;50.28;;
60502;SDS011;51448;51.660;5.824;2022-12-16T09:52:25;196.55;;;47.35;;
60502;SDS011;51448;51.660;5.824;2022-12-16T09:55:19;294.45;;;53.10;;
60502;SDS011;51448;51.660;5.824;2022-12-16T09:58:25;128.70;;;47.85;;
60502;SDS011;51448;51.660;5.824;2022-12-16T10:01:21;165.07;;;44.80;;
60502;SDS011;51448;51.660;5.824;2022-12-16T10:04:09;192.40;;;45.45;;
60502;SDS011;51448;51.660;5.824;2022-12-16T10:06:59;67.63;;;44.50;;
60502;SDS011;51448;51.660;5.824;2022-12-16T10:13:26;90.25;;;44.42;;
60502;SDS011;51448;51.660;5.824;2022-12-16T10:16:28;159.70;;;46.05;;
60502;SDS011;51448;51.660;5.824;2022-12-16T10:22:55;79.97;;;44.35;;
60502;SDS011;51448;51.660;5.824;2022-12-16T10:29:18;93.20;;;48.97;;
60502;SDS011;51448;51.660;5.824;2022-12-16T10:32:18;107.37;;;48.00;;
60502;SDS011;51448;51.660;5.824;2022-12-16T10:38:44;81.45;;;45.47;;
60502;SDS011;51448;51.660;5.824;2022-12-16T10:41:36;102.35;;;43.60;;
60502;SDS011;51448;51.660;5.824;2022-12-16T10:44:34;81.53;;;44.17;;
60502;SDS011;51448;51.660;5.824;2022-12-16T10:47:35;78.43;;;44.40;;
60502;SDS011;51448;51.660;5.824;2022-12-16T10:50:22;60.05;;;43.75;;
60502;SDS011;51448;51.660;5.824;2022-12-16T10:53:25;64.00;;;45.47;;
60502;SDS011;51448;51.660;5.824;2022-12-16T10:59:17;55.55;;;42.63;;
60502;SDS011;51448;51.660;5.824;2022-12-16T11:02:04;47.25;;;40.53;;
60502;SDS011;51448;51.660;5.824;2022-12-16T11:05:29;81.85;;;40.38;;
60502;SDS011;51448;51.660;5.824;2022-12-16T11:08:23;47.30;;;37.72;;
60502;SDS011;51448;51.660;5.824;2022-12-16T11:20:16;48.75;;;38.80;;
60502;SDS011;51448;51.660;5.824;2022-12-16T11:26:12;46.67;;;37.78;;
60502;SDS011;51448;51.660;5.824;2022-12-16T11:29:16;44.60;;;37.35;;
60502;SDS011;51448;51.660;5.824;2022-12-16T11:35:11;46.53;;;37.67;;
60502;SDS011;51448;51.660;5.824;2022-12-16T11:38:03;44.83;;;37.45;;
60502;SDS011;51448;51.660;5.824;2022-12-16T11:41:01;47.13;;;37.83;;
60502;SDS011;51448;51.660;5.824;2022-12-16T11:43:49;41.00;;;36.45;;
60502;SDS011;51448;51.660;5.824;2022-12-16T11:46:39;43.08;;;37.15;;
60502;SDS011;51448;51.660;5.824;2022-12-16T11:49:27;43.53;;;36.22;;
60502;SDS011;51448;51.660;5.824;2022-12-16T11:52:18;44.72;;;38.05;;
60502;SDS011;51448;51.660;5.824;2022-12-16T11:55:16;48.92;;;39.00;;
60502;SDS011;51448;51.660;5.824;2022-12-16T12:01:54;48.58;;;38.70;;
60502;SDS011;51448;51.660;5.824;2022-12-16T12:04:47;49.38;;;40.17;;
60502;SDS011;51448;51.660;5.824;2022-12-16T12:07:41;50.92;;;41.47;;
60502;SDS011;51448;51.660;5.824;2022-12-16T12:11:34;49.88;;;40.28;;
60502;SDS011;51448;51.660;5.824;2022-12-16T12:14:35;51.10;;;41.10;;
60502;SDS011;51448;51.660;5.824;2022-12-16T12:17:47;53.80;;;42.65;;
60502;SDS011;51448;51.660;5.824;2022-12-16T12:21:05;50.97;;;41.65;;
60502;SDS011;51448;51.660;5.824;2022-12-16T12:27:34;51.60;;;42.42;;
60502;SDS011;51448;51.660;5.824;2022-12-16T12:30:42;49.70;;;41.78;;
60502;SDS011;51448;51.660;5.824;2022-12-16T12:33:57;49.88;;;41.65;;
60502;SDS011;51448;51.660;5.824;2022-12-16T12:37:09;47.72;;;41.53;;
60502;SDS011;51448;51.660;5.824;2022-12-16T12:44:21;49.00;;;38.75;;
60502;SDS011;51448;51.660;5.824;2022-12-16T12:47:43;48.47;;;39.15;;
60502;SDS011;51448;51.660;5.824;2022-12-16T12:50:51;43.00;;;37.53;;
60502;SDS011;51448;51.660;5.824;2022-12-16T12:54:05;43.13;;;36.92;;
60502;SDS011;51448;51.660;5.824;2022-12-16T12:56:59;43.80;;;38.55;;
60502;SDS011;51448;51.660;5.824;2022-12-16T13:06:13;48.17;;;41.65;;
60502;SDS011;51448;51.660;5.824;2022-12-16T13:09:02;45.13;;;38.97;;
60502;SDS011;51448;51.660;5.824;2022-12-16T13:14:54;45.28;;;38.92;;
60502;SDS011;51448;51.660;5.824;2022-12-16T13:20:49;47.97;;;37.90;;
60502;SDS011;51448;51.660;5.824;2022-12-16T13:23:42;47.15;;;38.10;;
60502;SDS011;51448;51.660;5.824;2022-12-16T13:26:32;48.40;;;38.55;;
60502;SDS011;51448;51.660;5.824;2022-12-16T13:29:24;50.42;;;40.00;;
60502;SDS011;51448;51.660;5.824;2022-12-16T13:32:23;46.30;;;38.60;;
60502;SDS011;51448;51.660;5.824;2022-12-16T13:38:18;47.55;;;37.88;;
60502;SDS011;51448;51.660;5.824;2022-12-16T13:41:45;43.95;;;37.58;;
60502;SDS011;51448;51.660;5.824;2022-12-16T13:44:52;47.50;;;39.05;;
60502;SDS011;51448;51.660;5.824;2022-12-16T13:47:32;45.03;;;38.50;;
60502;SDS011;51448;51.660;5.824;2022-12-16T13:53:48;44.53;;;38.20;;
60502;SDS011;51448;51.660;5.824;2022-12-16T13:56:40;43.50;;;37.70;;
60502;SDS011;51448;51.660;5.824;2022-12-16T13:59:34;44.53;;;38.35;;
60502;SDS011;51448;51.660;5.824;2022-12-16T14:02:29;45.15;;;37.53;;
60502;SDS011;51448;51.660;5.824;2022-12-16T14:05:24;45.67;;;38.80;;
60502;SDS011;51448;51.660;5.824;2022-12-16T14:08:15;45.72;;;38.88;;
60502;SDS011;51448;51.660;5.824;2022-12-16T14:11:14;47.55;;;39.45;;
60502;SDS011;51448;51.660;5.824;2022-12-16T14:14:13;41.88;;;36.92;;
60502;SDS011;51448;51.660;5.824;2022-12-16T14:17:14;47.10;;;38.42;;
60502;SDS011;51448;51.660;5.824;2022-12-16T14:20:12;44.15;;;38.80;;
60502;SDS011;51448;51.660;5.824;2022-12-16T14:26:45;44.60;;;36.80;;
60502;SDS011;51448;51.660;5.824;2022-12-16T14:29:31;43.15;;;37.00;;
60502;SDS011;51448;51.660;5.824;2022-12-16T14:38:11;44.25;;;37.85;;
60502;SDS011;51448;51.660;5.824;2022-12-16T14:44:04;43.47;;;37.92;;
60502;SDS011;51448;51.660;5.824;2022-12-16T14:47:16;45.03;;;37.90;;
60502;SDS011;51448;51.660;5.824;2022-12-16T14:53:16;45.25;;;37.97;;
60502;SDS011;51448;51.660;5.824;2022-12-16T14:56:17;42.40;;;37.40;;
60502;SDS011;51448;51.660;5.824;2022-12-16T14:59:13;47.83;;;38.25;;
60502;SDS011;51448;51.660;5.824;2022-12-16T15:02:28;40.85;;;36.08;;
60502;SDS011;51448;51.660;5.824;2022-12-16T15:05:26;45.88;;;38.65;;
60502;SDS011;51448;51.660;5.824;2022-12-16T15:08:19;47.45;;;38.58;;
60502;SDS011;51448;51.660;5.824;2022-12-16T15:11:07;47.15;;;39.45;;
60502;SDS011;51448;51.660;5.824;2022-12-16T15:13:59;48.97;;;40.53;;
60502;SDS011;51448;51.660;5.824;2022-12-16T15:16:50;49.67;;;39.60;;
60502;SDS011;51448;51.660;5.824;2022-12-16T15:19:44;45.30;;;39.33;;
60502;SDS011;51448;51.660;5.824;2022-12-16T15:22:36;46.40;;;40.25;;
60502;SDS011;51448;51.660;5.824;2022-12-16T15:25:34;47.55;;;40.00;;
60502;SDS011;51448;51.660;5.824;2022-12-16T15:28:26;53.53;;;44.07;;
60502;SDS011;51448;51.660;5.824;2022-12-16T15:31:26;48.72;;;41.17;;
60502;SDS011;51448;51.660;5.824;2022-12-16T15:34:35;48.00;;;41.00;;
60502;SDS011;51448;51.660;5.824;2022-12-16T15:37:37;51.75;;;40.47;;
60502;SDS011;51448;51.660;5.824;2022-12-16T15:40:30;60.97;;;42.10;;
60502;SDS011;51448;51.660;5.824;2022-12-16T15:43:31;48.67;;;41.70;;
60502;SDS011;51448;51.660;5.824;2022-12-16T15:46:24;51.33;;;44.28;;
60502;SDS011;51448;51.660;5.824;2022-12-16T15:52:32;51.28;;;42.83;;
60502;SDS011;51448;51.660;5.824;2022-12-16T15:55:30;53.88;;;43.03;;
60502;SDS011;51448;51.660;5.824;2022-12-16T15:58:29;52.97;;;43.30;;
60502;SDS011;51448;51.660;5.824;2022-12-16T16:01:20;53.28;;;42.88;;
60502;SDS011;51448;51.660;5.824;2022-12-16T16:04:30;54.50;;;43.75;;
60502;SDS011;51448;51.660;5.824;2022-12-16T16:07:17;50.33;;;42.00;;
60502;SDS011;51448;51.660;5.824;2022-12-16T16:13:00;67.72;;;54.38;;
60502;SDS011;51448;51.660;5.824;2022-12-16T16:15:46;54.92;;;45.35;;
60502;SDS011;51448;51.660;5.824;2022-12-16T16:18:32;49.10;;;41.45;;
60502;SDS011;51448;51.660;5.824;2022-12-16T16:21:18;50.72;;;43.22;;
60502;SDS011;51448;51.660;5.824;2022-12-16T16:24:05;51.83;;;41.08;;
60502;SDS011;51448;51.660;5.824;2022-12-16T16:26:55;51.30;;;43.72;;
60502;SDS011;51448;51.660;5.824;2022-12-16T16:29:45;53.97;;;43.97;;
60502;SDS011;51448;51.660;5.824;2022-12-16T16:32:32;57.83;;;44.45;;
60502;SDS011;51448;51.660;5.824;2022-12-16T16:35:17;50.47;;;42.92;;
60502;SDS011;51448;51.660;5.824;2022-12-16T16:38:03;51.40;;;42.67;;
60502;SDS011;51448;51.660;5.824;2022-12-16T16:40:49;49.60;;;40.30;;
60502;SDS011;51448;51.660;5.824;2022-12-16T16:43:36;49.72;;;41.03;;
60502;SDS011;51448;51.660;5.824;2022-12-16T16:46:26;50.20;;;40.10;;
60502;SDS011;51448;51.660;5.824;2022-12-16T16:52:10;49.15;;;40.08;;
60502;SDS011;51448;51.660;5.824;2022-12-16T16:55:03;52.42;;;43.88;;
60502;SDS011;51448;51.660;5.824;2022-12-16T16:57:51;51.05;;;40.08;;
60502;SDS011;51448;51.660;5.824;2022-12-16T17:00:37;53.33;;;41.80;;
60502;SDS011;51448;51.660;5.824;2022-12-16T17:03:23;51.85;;;41.88;;
60502;SDS011;51448;51.660;5.824;2022-12-16T17:06:10;56.35;;;42.20;;
60502;SDS011;51448;51.660;5.824;2022-12-16T17:08:56;56.03;;;42.60;;
60502;SDS011;51448;51.660;5.824;2022-12-16T17:11:42;50.53;;;41.08;;
60502;SDS011;51448;51.660;5.824;2022-12-16T17:14:29;53.78;;;41.80;;
60502;SDS011;51448;51.660;5.824;2022-12-16T17:17:15;51.88;;;41.80;;
60502;SDS011;51448;51.660;5.824;2022-12-16T17:20:01;51.47;;;40.45;;
60502;SDS011;51448;51.660;5.824;2022-12-16T17:22:50;54.20;;;41.28;;
60502;SDS011;51448;51.660;5.824;2022-12-16T17:25:56;53.33;;;42.25;;
60502;SDS011;51448;51.660;5.824;2022-12-16T17:28:42;51.20;;;41.70;;
60502;SDS011;51448;51.660;5.824;2022-12-16T17:31:30;52.42;;;41.72;;
60502;SDS011;51448;51.660;5.824;2022-12-16T17:34:16;56.33;;;42.53;;
60502;SDS011;51448;51.660;5.824;2022-12-16T17:37:02;52.20;;;41.78;;
60502;SDS011;51448;51.660;5.824;2022-12-16T17:39:48;52.67;;;41.70;;
60502;SDS011;51448;51.660;5.824;2022-12-16T17:42:35;56.03;;;44.10;;
60502;SDS011;51448;51.660;5.824;2022-12-16T17:45:21;54.92;;;41.47;;
60502;SDS011;51448;51.660;5.824;2022-12-16T17:48:07;53.85;;;42.22;;
60502;SDS011;51448;51.660;5.824;2022-12-16T17:50:53;55.88;;;43.22;;
60502;SDS011;51448;51.660;5.824;2022-12-16T17:53:39;57.42;;;43.97;;
60502;SDS011;51448;51.660;5.824;2022-12-16T17:56:33;55.67;;;43.58;;
60502;SDS011;51448;51.660;5.824;2022-12-16T17:59:19;58.65;;;44.70;;
60502;SDS011;51448;51.660;5.824;2022-12-16T18:02:05;55.28;;;45.15;;
60502;SDS011;51448;51.660;5.824;2022-12-16T18:04:53;58.10;;;43.20;;
60502;SDS011;51448;51.660;5.824;2022-12-16T18:07:39;56.35;;;43.83;;
60502;SDS011;51448;51.660;5.824;2022-12-16T18:10:25;55.55;;;43.83;;
60502;SDS011;51448;51.660;5.824;2022-12-16T18:13:12;58.03;;;44.22;;
60502;SDS011;51448;51.660;5.824;2022-12-16T18:16:01;58.30;;;44.83;;
60502;SDS011;51448;51.660;5.824;2022-12-16T18:18:48;51.97;;;42.42;;
60502;SDS011;51448;51.660;5.824;2022-12-16T18:21:35;57.40;;;44.20;;
60502;SDS011;51448;51.660;5.824;2022-12-16T18:24:21;55.90;;;44.13;;
60502;SDS011;51448;51.660;5.824;2022-12-16T18:27:14;57.53;;;45.42;;